sensor_id;sensor_type;location;lat;lon;timestamp;pressure;altitude;pressure_sealevel;temperature;humidity
11038;BME280;5572;49.540;11.932;2023-08-07T00:01:31;94330.97;;;12.80;100.00
11038;BME280;5572;49.540;11.932;2023-08-07T00:03:59;94342.31;;;12.67;100.00
11038;BME280;5572;49.540;11.932;2023-08-07T00:06:26;94342.72;;;12.69;100.00
11038;BME280;5572;49.540;11.932;2023-08-07T00:08:52;94336.59;;;12.72;100.00
11038;BME280;5572;49.540;11.932;2023-08-07T00:11:19;94329.38;;;12.79;100.00
11038;BME280;5572;49.540;11.932;2023-08-07T00:13:46;94283.06;;;12.69;100.00
11038;BME280;5572;49.540;11.932;2023-08-07T00:16:12;94282.06;;;12.58;100.00
11038;BME280;5572;49.540;11.932;2023-08-07T00:18:39;94281.09;;;12.66;100.00
11038;BME280;5572;49.540;11.932;2023-08-07T00:21:07;94277.38;;;12.74;100.00
11038;BME280;5572;49.540;11.932;2023-08-07T00:23:33;94277.81;;;12.76;100.00
11038;BME280;5572;49.540;11.932;2023-08-07T00:26:00;94278.41;;;12.66;100.00
11038;BME280;5572;49.540;11.932;2023-08-07T00:28:27;94281.94;;;12.70;100.00
11038;BME280;5572;49.540;11.932;2023-08-07T00:30:54;94276.19;;;12.71;100.00
11038;BME280;5572;49.540;11.932;2023-08-07T00:33:21;94280.53;;;12.57;100.00
11038;BME280;5572;49.540;11.932;2023-08-07T00:35:48;94284.44;;;12.59;100.00
11038;BME280;5572;49.540;11.932;2023-08-07T00:38:16;94281.44;;;12.64;100.00
11038;BME280;5572;49.540;11.932;2023-08-07T00:40:42;94275.25;;;12.64;100.00
11038;BME280;5572;49.540;11.932;2023-08-07T00:43:09;94270.19;;;12.62;100.00
11038;BME280;5572;49.540;11.932;2023-08-07T00:45:38;94278.31;;;12.62;100.00
11038;BME280;5572;49.540;11.932;2023-08-07T00:48:07;94270.75;;;12.71;100.00
11038;BME280;5572;49.540;11.932;2023-08-07T00:50:34;94275.53;;;12.59;100.00
11038;BME280;5572;49.540;11.932;2023-08-07T00:53:00;94275.38;;;12.52;100.00
11038;BME280;5572;49.540;11.932;2023-08-07T00:55:29;94282.88;;;12.58;100.00
11038;BME280;5572;49.540;11.932;2023-08-07T00:57:56;94273.25;;;12.61;100.00
11038;BME280;5572;49.540;11.932;2023-08-07T01:00:25;94274.13;;;12.65;100.00
11038;BME280;5572;49.540;11.932;2023-08-07T01:02:52;94277.41;;;12.55;100.00
11038;BME280;5572;49.540;11.932;2023-08-07T01:05:20;94279.03;;;12.59;100.00
11038;BME280;5572;49.540;11.932;2023-08-07T01:07:47;94270.47;;;12.57;100.00
11038;BME280;5572;49.540;11.932;2023-08-07T01:10:16;94258.56;;;12.62;100.00
11038;BME280;5572;49.540;11.932;2023-08-07T01:12:51;94260.91;;;12.63;100.00
11038;BME280;5572;49.540;11.932;2023-08-07T01:15:22;94263.59;;;12.63;100.00
11038;BME280;5572;49.540;11.932;2023-08-07T01:17:52;94254.72;;;12.63;100.00
11038;BME280;5572;49.540;11.932;2023-08-07T01:20:19;94257.41;;;12.63;100.00
11038;BME280;5572;49.540;11.932;2023-08-07T01:22:47;94264.19;;;12.53;100.00
11038;BME280;5572;49.540;11.932;2023-08-07T01:25:14;94264.97;;;12.54;100.00
11038;BME280;5572;49.540;11.932;2023-08-07T01:27:45;94263.22;;;12.61;100.00
11038;BME280;5572;49.540;11.932;2023-08-07T01:30:18;94261.47;;;12.53;100.00
11038;BME280;5572;49.540;11.932;2023-08-07T01:32:54;94255.34;;;12.56;100.00
11038;BME280;5572;49.540;11.932;2023-08-07T01:35:27;94262.22;;;12.50;100.00
11038;BME280;5572;49.540;11.932;2023-08-07T01:37:58;94257.94;;;12.49;100.00
11038;BME280;5572;49.540;11.932;2023-08-07T01:40:27;94257.94;;;12.49;100.00
11038;BME280;5572;49.540;11.932;2023-08-07T01:42:54;94264.69;;;12.59;100.00
11038;BME280;5572;49.540;11.932;2023-08-07T01:45:24;94250.50;;;12.46;100.00
11038;BME280;5572;49.540;11.932;2023-08-07T01:47:51;94262.28;;;12.54;100.00
11038;BME280;5572;49.540;11.932;2023-08-07T01:50:18;94254.66;;;12.40;100.00
11038;BME280;5572;49.540;11.932;2023-08-07T01:52:45;94238.88;;;12.46;100.00
11038;BME280;5572;49.540;11.932;2023-08-07T01:55:13;94243.25;;;12.50;100.00
11038;BME280;5572;49.540;11.932;2023-08-07T01:57:40;94232.34;;;12.47;100.00
11038;BME280;5572;49.540;11.932;2023-08-07T02:00:08;94236.03;;;12.39;100.00
11038;BME280;5572;49.540;11.932;2023-08-07T02:02:34;94248.50;;;12.43;100.00
11038;BME280;5572;49.540;11.932;2023-08-07T02:05:01;94231.09;;;12.44;100.00
11038;BME280;5572;49.540;11.932;2023-08-07T02:07:28;94228.94;;;12.53;100.00
11038;BME280;5572;49.540;11.932;2023-08-07T02:09:55;94235.94;;;12.54;100.00
11038;BME280;5572;49.540;11.932;2023-08-07T02:12:23;94242.88;;;12.52;100.00
11038;BME280;5572;49.540;11.932;2023-08-07T02:14:51;94234.47;;;12.57;100.00
11038;BME280;5572;49.540;11.932;2023-08-07T02:17:17;94236.31;;;12.53;100.00
11038;BME280;5572;49.540;11.932;2023-08-07T02:19:44;94245.94;;;12.50;100.00
11038;BME280;5572;49.540;11.932;2023-08-07T02:22:10;94248.22;;;12.48;100.00
11038;BME280;5572;49.540;11.932;2023-08-07T02:24:37;94248.16;;;12.45;100.00
11038;BME280;5572;49.540;11.932;2023-08-07T02:27:04;94259.78;;;12.45;100.00
11038;BME280;5572;49.540;11.932;2023-08-07T02:29:32;94262.22;;;12.50;100.00
11038;BME280;5572;49.540;11.932;2023-08-07T02:31:59;94271.09;;;12.51;100.00
11038;BME280;5572;49.540;11.932;2023-08-07T02:34:26;94266.06;;;12.49;100.00
11038;BME280;5572;49.540;11.932;2023-08-07T02:36:52;94271.34;;;12.42;100.00
11038;BME280;5572;49.540;11.932;2023-08-07T02:39:19;94274.31;;;12.37;100.00
11038;BME280;5572;49.540;11.932;2023-08-07T02:41:45;94274.38;;;12.41;100.00
11038;BME280;5572;49.540;11.932;2023-08-07T02:44:12;94288.16;;;12.51;100.00
11038;BME280;5572;49.540;11.932;2023-08-07T02:46:40;94287.66;;;12.46;100.00
11038;BME280;5572;49.540;11.932;2023-08-07T02:49:06;94285.28;;;12.44;100.00
11038;BME280;5572;49.540;11.932;2023-08-07T02:51:33;94290.78;;;12.48;100.00
11038;BME280;5572;49.540;11.932;2023-08-07T02:53:59;94301.28;;;12.49;100.00
11038;BME280;5572;49.540;11.932;2023-08-07T02:56:26;94309.97;;;12.39;100.00
11038;BME280;5572;49.540;11.932;2023-08-07T02:58:53;94313.00;;;12.38;100.00
11038;BME280;5572;49.540;11.932;2023-08-07T03:01:19;94311.19;;;12.42;100.00
11038;BME280;5572;49.540;11.932;2023-08-07T03:03:48;94320.50;;;12.44;100.00
11038;BME280;5572;49.540;11.932;2023-08-07T03:06:14;94315.03;;;12.41;100.00
11038;BME280;5572;49.540;11.932;2023-08-07T03:08:41;94322.16;;;12.49;100.00
11038;BME280;5572;49.540;11.932;2023-08-07T03:11:08;94313.66;;;12.31;100.00
11038;BME280;5572;49.540;11.932;2023-08-07T03:13:34;94329.19;;;12.34;100.00
11038;BME280;5572;49.540;11.932;2023-08-07T03:16:02;94329.56;;;12.33;100.00
11038;BME280;5572;49.540;11.932;2023-08-07T03:18:30;94334.53;;;12.31;100.00
11038;BME280;5572;49.540;11.932;2023-08-07T03:20:58;94340.75;;;12.31;100.00
11038;BME280;5572;49.540;11.932;2023-08-07T03:23:26;94329.94;;;12.31;100.00
11038;BME280;5572;49.540;11.932;2023-08-07T03:26:01;94340.66;;;12.28;100.00
11038;BME280;5572;49.540;11.932;2023-08-07T03:28:28;94341.03;;;12.26;100.00
11038;BME280;5572;49.540;11.932;2023-08-07T03:30:55;94352.84;;;12.18;100.00
11038;BME280;5572;49.540;11.932;2023-08-07T03:33:22;94355.78;;;12.29;100.00
11038;BME280;5572;49.540;11.932;2023-08-07T03:35:48;94358.41;;;12.25;100.00
11038;BME280;5572;49.540;11.932;2023-08-07T03:38:16;94360.16;;;12.18;100.00
11038;BME280;5572;49.540;11.932;2023-08-07T03:40:43;94357.88;;;12.20;100.00
11038;BME280;5572;49.540;11.932;2023-08-07T03:43:09;94372.25;;;12.20;100.00
11038;BME280;5572;49.540;11.932;2023-08-07T03:45:36;94362.19;;;12.21;100.00
11038;BME280;5572;49.540;11.932;2023-08-07T03:48:02;94380.47;;;12.08;100.00
11038;BME280;5572;49.540;11.932;2023-08-07T03:50:29;94381.41;;;12.16;100.00
11038;BME280;5572;49.540;11.932;2023-08-07T03:52:59;94392.31;;;12.19;100.00
11038;BME280;5572;49.540;11.932;2023-08-07T03:55:27;94383.84;;;12.21;100.00
11038;BME280;5572;49.540;11.932;2023-08-07T03:57:54;94388.03;;;12.18;100.00
11038;BME280;5572;49.540;11.932;2023-08-07T04:00:20;94396.78;;;12.12;100.00
11038;BME280;5572;49.540;11.932;2023-08-07T04:02:47;94406.41;;;12.09;100.00
11038;BME280;5572;49.540;11.932;2023-08-07T04:05:13;94406.84;;;12.11;100.00
11038;BME280;5572;49.540;11.932;2023-08-07T04:07:40;94410.69;;;12.10;100.00
11038;BME280;5572;49.540;11.932;2023-08-07T04:10:08;94404.22;;;12.00;100.00
11038;BME280;5572;49.540;11.932;2023-08-07T04:12:36;94416.03;;;12.07;100.00
11038;BME280;5572;49.540;11.932;2023-08-07T04:15:03;94418.38;;;12.08;100.00
11038;BME280;5572;49.540;11.932;2023-08-07T04:17:30;94421.97;;;12.12;100.00
11038;BME280;5572;49.540;11.932;2023-08-07T04:19:56;94431.91;;;12.08;100.00
11038;BME280;5572;49.540;11.932;2023-08-07T04:22:23;94432.28;;;12.07;100.00
11038;BME280;5572;49.540;11.932;2023-08-07T04:24:49;94431.81;;;12.05;100.00
11038;BME280;5572;49.540;11.932;2023-08-07T04:27:16;94433.03;;;12.07;100.00
11038;BME280;5572;49.540;11.932;2023-08-07T04:29:44;94443.78;;;12.04;100.00
11038;BME280;5572;49.540;11.932;2023-08-07T04:32:11;94450.16;;;11.96;100.00
11038;BME280;5572;49.540;11.932;2023-08-07T04:34:37;94450.50;;;11.95;100.00
11038;BME280;5572;49.540;11.932;2023-08-07T04:37:04;94455.50;;;11.93;100.00
11038;BME280;5572;49.540;11.932;2023-08-07T04:39:31;94460.91;;;11.93;100.00
11038;BME280;5572;49.540;11.932;2023-08-07T04:41:58;94471.63;;;12.04;100.00
11038;BME280;5572;49.540;11.932;2023-08-07T04:44:24;94470.69;;;11.97;100.00
11038;BME280;5572;49.540;11.932;2023-08-07T04:46:52;94473.50;;;12.01;100.00
11038;BME280;5572;49.540;11.932;2023-08-07T04:49:19;94478.97;;;11.89;100.00
11038;BME280;5572;49.540;11.932;2023-08-07T04:51:45;94480.81;;;12.00;100.00
11038;BME280;5572;49.540;11.932;2023-08-07T04:54:12;94496.09;;;11.93;100.00
11038;BME280;5572;49.540;11.932;2023-08-07T04:56:39;94491.31;;;12.02;100.00
11038;BME280;5572;49.540;11.932;2023-08-07T04:59:06;94494.16;;;11.93;100.00
11038;BME280;5572;49.540;11.932;2023-08-07T05:01:32;94497.84;;;12.01;100.00
11038;BME280;5572;49.540;11.932;2023-08-07T05:04:00;94509.38;;;11.98;100.00
11038;BME280;5572;49.540;11.932;2023-08-07T05:06:27;94504.22;;;11.93;100.00
11038;BME280;5572;49.540;11.932;2023-08-07T05:08:54;94492.16;;;11.90;100.00
11038;BME280;5572;49.540;11.932;2023-08-07T05:11:20;94509.38;;;11.98;100.00
11038;BME280;5572;49.540;11.932;2023-08-07T05:13:47;94520.22;;;11.98;100.00
11038;BME280;5572;49.540;11.932;2023-08-07T05:16:13;94514.97;;;12.04;100.00
11038;BME280;5572;49.540;11.932;2023-08-07T05:18:40;94514.69;;;11.94;100.00
11038;BME280;5572;49.540;11.932;2023-08-07T05:21:08;94522.56;;;11.99;100.00
11038;BME280;5572;49.540;11.932;2023-08-07T05:23:35;94517.25;;;12.02;100.00
11038;BME280;5572;49.540;11.932;2023-08-07T05:26:01;94526.75;;;11.97;100.00
11038;BME280;5572;49.540;11.932;2023-08-07T05:28:28;94527.19;;;11.99;100.00
11038;BME280;5572;49.540;11.932;2023-08-07T05:30:55;94529.63;;;12.03;100.00
11038;BME280;5572;49.540;11.932;2023-08-07T05:33:21;94526.41;;;11.98;100.00
11038;BME280;5572;49.540;11.932;2023-08-07T05:35:48;94536.34;;;11.94;100.00
11038;BME280;5572;49.540;11.932;2023-08-07T05:38:16;94540.38;;;12.00;100.00
11038;BME280;5572;49.540;11.932;2023-08-07T05:40:43;94539.94;;;11.98;100.00
11038;BME280;5572;49.540;11.932;2023-08-07T05:43:09;94533.66;;;11.94;100.00
11038;BME280;5572;49.540;11.932;2023-08-07T05:45:36;94537.22;;;11.98;100.00
11038;BME280;5572;49.540;11.932;2023-08-07T05:48:03;94518.19;;;11.95;100.00
11038;BME280;5572;49.540;11.932;2023-08-07T05:50:30;94543.13;;;11.88;100.00
11038;BME280;5572;49.540;11.932;2023-08-07T05:52:56;94549.91;;;11.94;100.00
11038;BME280;5572;49.540;11.932;2023-08-07T05:55:24;94535.78;;;12.01;100.00
11038;BME280;5572;49.540;11.932;2023-08-07T05:57:51;94551.81;;;11.94;100.00
11038;BME280;5572;49.540;11.932;2023-08-07T06:00:17;94552.00;;;12.01;100.00
11038;BME280;5572;49.540;11.932;2023-08-07T06:02:45;94556.28;;;12.02;100.00
11038;BME280;5572;49.540;11.932;2023-08-07T06:05:11;94565.19;;;12.02;100.00
11038;BME280;5572;49.540;11.932;2023-08-07T06:07:40;94561.63;;;12.13;100.00
11038;BME280;5572;49.540;11.932;2023-08-07T06:10:07;94556.72;;;12.03;100.00
11038;BME280;5572;49.540;11.932;2023-08-07T06:12:50;94546.63;;;12.16;100.00
11038;BME280;5572;49.540;11.932;2023-08-07T06:15:17;94537.97;;;12.10;100.00
11038;BME280;5572;49.540;11.932;2023-08-07T06:17:44;94550.72;;;12.25;100.00
11038;BME280;5572;49.540;11.932;2023-08-07T06:20:11;94541.19;;;12.01;100.00
11038;BME280;5572;49.540;11.932;2023-08-07T06:22:39;94539.59;;;12.00;100.00
11038;BME280;5572;49.540;11.932;2023-08-07T06:25:06;94540.06;;;12.02;100.00
11038;BME280;5572;49.540;11.932;2023-08-07T06:27:46;94541.28;;;12.04;100.00
11038;BME280;5572;49.540;11.932;2023-08-07T06:30:33;94547.16;;;12.21;100.00
11038;BME280;5572;49.540;11.932;2023-08-07T06:33:03;94551.84;;;12.09;100.00
11038;BME280;5572;49.540;11.932;2023-08-07T06:35:30;94558.06;;;12.09;100.00
11038;BME280;5572;49.540;11.932;2023-08-07T06:37:56;94560.66;;;12.06;100.00
11038;BME280;5572;49.540;11.932;2023-08-07T06:40:23;94579.38;;;12.11;100.00
11038;BME280;5572;49.540;11.932;2023-08-07T06:42:49;94588.00;;;12.01;100.00
11038;BME280;5572;49.540;11.932;2023-08-07T06:45:16;94599.50;;;11.98;100.00
11038;BME280;5572;49.540;11.932;2023-08-07T06:47:44;94603.13;;;12.17;100.00
11038;BME280;5572;49.540;11.932;2023-08-07T06:50:10;94596.16;;;12.16;100.00
11038;BME280;5572;49.540;11.932;2023-08-07T06:52:37;94613.00;;;12.10;100.00
11038;BME280;5572;49.540;11.932;2023-08-07T06:55:05;94595.59;;;12.11;100.00
11038;BME280;5572;49.540;11.932;2023-08-07T06:57:32;94608.28;;;12.07;100.00
11038;BME280;5572;49.540;11.932;2023-08-07T06:59:58;94619.78;;;12.04;100.00
11038;BME280;5572;49.540;11.932;2023-08-07T07:02:25;94628.78;;;12.08;100.00
11038;BME280;5572;49.540;11.932;2023-08-07T07:05:37;94612.34;;;12.01;100.00
11038;BME280;5572;49.540;11.932;2023-08-07T07:08:04;94621.50;;;11.97;100.00
11038;BME280;5572;49.540;11.932;2023-08-07T07:10:31;94626.38;;;12.18;100.00
11038;BME280;5572;49.540;11.932;2023-08-07T07:12:58;94636.59;;;12.09;100.00
11038;BME280;5572;49.540;11.932;2023-08-07T07:15:24;94620.03;;;12.26;100.00
11038;BME280;5572;49.540;11.932;2023-08-07T07:17:51;94644.44;;;12.42;100.00
11038;BME280;5572;49.540;11.932;2023-08-07T07:20:18;94630.00;;;12.22;100.00
11038;BME280;5572;49.540;11.932;2023-08-07T07:22:46;94580.06;;;12.23;100.00
11038;BME280;5572;49.540;11.932;2023-08-07T07:25:13;94579.84;;;12.28;100.00
11038;BME280;5572;49.540;11.932;2023-08-07T07:27:40;94576.44;;;12.31;100.00
11038;BME280;5572;49.540;11.932;2023-08-07T07:30:07;94615.00;;;12.40;100.00
11038;BME280;5572;49.540;11.932;2023-08-07T07:32:34;94609.56;;;12.40;100.00
11038;BME280;5572;49.540;11.932;2023-08-07T07:35:01;94619.28;;;12.41;100.00
11038;BME280;5572;49.540;11.932;2023-08-07T07:37:29;94626.91;;;12.51;100.00
11038;BME280;5572;49.540;11.932;2023-08-07T07:39:57;94606.59;;;12.45;100.00
11038;BME280;5572;49.540;11.932;2023-08-07T07:42:24;94599.97;;;12.58;100.00
11038;BME280;5572;49.540;11.932;2023-08-07T07:44:51;94604.72;;;12.77;100.00
11038;BME280;5572;49.540;11.932;2023-08-07T07:47:17;94590.34;;;12.61;100.00
11038;BME280;5572;49.540;11.932;2023-08-07T07:49:45;94572.25;;;12.49;100.00
11038;BME280;5572;49.540;11.932;2023-08-07T07:52:12;94566.47;;;12.66;100.00
11038;BME280;5572;49.540;11.932;2023-08-07T07:54:39;94562.81;;;12.89;100.00
11038;BME280;5572;49.540;11.932;2023-08-07T07:57:07;94545.06;;;12.92;100.00
11038;BME280;5572;49.540;11.932;2023-08-07T07:59:34;94536.03;;;12.88;100.00
11038;BME280;5572;49.540;11.932;2023-08-07T08:02:00;94543.56;;;12.64;100.00
11038;BME280;5572;49.540;11.932;2023-08-07T08:04:27;94531.94;;;12.63;100.00
11038;BME280;5572;49.540;11.932;2023-08-07T08:06:54;94536.13;;;12.76;100.00
11038;BME280;5572;49.540;11.932;2023-08-07T08:09:20;94531.66;;;12.84;100.00
11038;BME280;5572;49.540;11.932;2023-08-07T08:11:47;94523.63;;;12.72;100.00
11038;BME280;5572;49.540;11.932;2023-08-07T08:14:15;94509.53;;;12.82;100.00
11038;BME280;5572;49.540;11.932;2023-08-07T08:16:41;94515.50;;;12.56;100.00
11038;BME280;5572;49.540;11.932;2023-08-07T08:19:08;94500.34;;;12.86;100.00
11038;BME280;5572;49.540;11.932;2023-08-07T08:21:35;94501.47;;;12.85;100.00
11038;BME280;5572;49.540;11.932;2023-08-07T08:24:01;94478.19;;;12.99;100.00
11038;BME280;5572;49.540;11.932;2023-08-07T08:26:28;94483.94;;;12.64;100.00
11038;BME280;5572;49.540;11.932;2023-08-07T08:28:55;94476.81;;;13.05;100.00
11038;BME280;5572;49.540;11.932;2023-08-07T08:31:22;94476.47;;;12.91;100.00
11038;BME280;5572;49.540;11.932;2023-08-07T08:33:49;94474.91;;;12.90;100.00
11038;BME280;5572;49.540;11.932;2023-08-07T08:36:16;94489.72;;;12.78;100.00
11038;BME280;5572;49.540;11.932;2023-08-07T08:38:43;94483.03;;;12.75;100.00
11038;BME280;5572;49.540;11.932;2023-08-07T08:41:11;94476.06;;;12.59;100.00
11038;BME280;5572;49.540;11.932;2023-08-07T08:43:38;94482.72;;;12.61;100.00
11038;BME280;5572;49.540;11.932;2023-08-07T08:46:07;94469.72;;;13.01;100.00
11038;BME280;5572;49.540;11.932;2023-08-07T08:48:38;94474.81;;;12.87;100.00
11038;BME280;5572;49.540;11.932;2023-08-07T08:51:06;94481.75;;;12.69;100.00
11038;BME280;5572;49.540;11.932;2023-08-07T08:53:35;94479.16;;;12.57;100.00
11038;BME280;5572;49.540;11.932;2023-08-07T08:56:02;94492.09;;;12.64;100.00
11038;BME280;5572;49.540;11.932;2023-08-07T08:58:28;94486.59;;;12.60;100.00
11038;BME280;5572;49.540;11.932;2023-08-07T09:00:55;94488.28;;;12.84;100.00
11038;BME280;5572;49.540;11.932;2023-08-07T09:03:23;94481.03;;;12.88;100.00
11038;BME280;5572;49.540;11.932;2023-08-07T09:05:53;94472.63;;;12.92;100.00
11038;BME280;5572;49.540;11.932;2023-08-07T09:08:21;94490.31;;;12.71;100.00
11038;BME280;5572;49.540;11.932;2023-08-07T09:10:49;94489.59;;;12.74;100.00
11038;BME280;5572;49.540;11.932;2023-08-07T09:13:20;94493.28;;;12.82;100.00
11038;BME280;5572;49.540;11.932;2023-08-07T09:15:47;94486.56;;;12.76;100.00
11038;BME280;5572;49.540;11.932;2023-08-07T09:18:17;94484.69;;;12.95;100.00
11038;BME280;5572;49.540;11.932;2023-08-07T09:20:43;94490.28;;;12.87;100.00
11038;BME280;5572;49.540;11.932;2023-08-07T09:23:11;94494.47;;;12.84;100.00
11038;BME280;5572;49.540;11.932;2023-08-07T09:25:39;94496.34;;;12.80;100.00
11038;BME280;5572;49.540;11.932;2023-08-07T09:28:06;94490.44;;;13.09;100.00
11038;BME280;5572;49.540;11.932;2023-08-07T09:30:34;94489.22;;;13.06;100.00
11038;BME280;5572;49.540;11.932;2023-08-07T09:33:02;94497.56;;;12.98;100.00
11038;BME280;5572;49.540;11.932;2023-08-07T09:35:30;94500.44;;;12.74;100.00
11038;BME280;5572;49.540;11.932;2023-08-07T09:37:57;94498.44;;;13.21;100.00
11038;BME280;5572;49.540;11.932;2023-08-07T09:40:25;94486.03;;;13.20;100.00
11038;BME280;5572;49.540;11.932;2023-08-07T09:42:53;94493.22;;;13.12;100.00
11038;BME280;5572;49.540;11.932;2023-08-07T09:45:21;94493.94;;;13.28;100.00
11038;BME280;5572;49.540;11.932;2023-08-07T09:47:56;94489.31;;;13.29;100.00
11038;BME280;5572;49.540;11.932;2023-08-07T09:50:23;94480.47;;;13.32;100.00
11038;BME280;5572;49.540;11.932;2023-08-07T09:52:50;94505.09;;;13.23;100.00
11038;BME280;5572;49.540;11.932;2023-08-07T09:55:17;94486.47;;;13.60;100.00
11038;BME280;5572;49.540;11.932;2023-08-07T09:57:45;94484.25;;;13.65;100.00
11038;BME280;5572;49.540;11.932;2023-08-07T10:00:12;94494.13;;;13.54;100.00
11038;BME280;5572;49.540;11.932;2023-08-07T10:02:40;94499.53;;;13.54;100.00
11038;BME280;5572;49.540;11.932;2023-08-07T10:05:08;94489.31;;;13.48;100.00
11038;BME280;5572;49.540;11.932;2023-08-07T10:07:35;94493.75;;;13.37;100.00
11038;BME280;5572;49.540;11.932;2023-08-07T10:10:03;94503.97;;;13.43;100.00
11038;BME280;5572;49.540;11.932;2023-08-07T10:12:31;94518.16;;;13.18;100.00
11038;BME280;5572;49.540;11.932;2023-08-07T10:15:00;94519.34;;;13.20;100.00
11038;BME280;5572;49.540;11.932;2023-08-07T10:17:27;94520.31;;;13.28;100.00
11038;BME280;5572;49.540;11.932;2023-08-07T10:19:54;94503.06;;;13.20;100.00
11038;BME280;5572;49.540;11.932;2023-08-07T10:22:23;94515.28;;;13.11;100.00
11038;BME280;5572;49.540;11.932;2023-08-07T10:24:53;94523.03;;;12.93;100.00
11038;BME280;5572;49.540;11.932;2023-08-07T10:27:21;94510.13;;;13.06;100.00
11038;BME280;5572;49.540;11.932;2023-08-07T10:29:50;94515.94;;;13.23;100.00
11038;BME280;5572;49.540;11.932;2023-08-07T10:32:20;94514.09;;;12.93;100.00
11038;BME280;5572;49.540;11.932;2023-08-07T10:34:49;94521.28;;;13.20;100.00
11038;BME280;5572;49.540;11.932;2023-08-07T10:37:40;94522.63;;;13.10;100.00
11038;BME280;5572;49.540;11.932;2023-08-07T10:40:09;94519.28;;;13.17;100.00
11038;BME280;5572;49.540;11.932;2023-08-07T10:42:55;94517.47;;;13.40;100.00
11038;BME280;5572;49.540;11.932;2023-08-07T10:45:22;94512.81;;;13.40;100.00
11038;BME280;5572;49.540;11.932;2023-08-07T10:48:07;94522.56;;;13.26;100.00
11038;BME280;5572;49.540;11.932;2023-08-07T10:50:35;94507.94;;;13.68;100.00
11038;BME280;5572;49.540;11.932;2023-08-07T10:53:18;94513.53;;;13.37;100.00
11038;BME280;5572;49.540;11.932;2023-08-07T10:55:45;94500.03;;;13.60;100.00
11038;BME280;5572;49.540;11.932;2023-08-07T10:58:22;94514.53;;;13.48;100.00
11038;BME280;5572;49.540;11.932;2023-08-07T11:00:50;94490.47;;;13.47;100.00
11038;BME280;5572;49.540;11.932;2023-08-07T11:03:26;94493.25;;;13.50;100.00
11038;BME280;5572;49.540;11.932;2023-08-07T11:05:53;94521.28;;;13.20;100.00
11038;BME280;5572;49.540;11.932;2023-08-07T11:08:22;94516.84;;;13.46;100.00
11038;BME280;5572;49.540;11.932;2023-08-07T11:10:50;94517.59;;;13.28;100.00
11038;BME280;5572;49.540;11.932;2023-08-07T11:13:17;94542.75;;;13.09;100.00
11038;BME280;5572;49.540;11.932;2023-08-07T11:15:45;94545.91;;;13.11;100.00
11038;BME280;5572;49.540;11.932;2023-08-07T11:18:12;94533.25;;;13.00;100.00
11038;BME280;5572;49.540;11.932;2023-08-07T11:20:40;94544.00;;;12.96;100.00
11038;BME280;5572;49.540;11.932;2023-08-07T11:23:07;94541.94;;;12.90;100.00
11038;BME280;5572;49.540;11.932;2023-08-07T11:25:33;94550.81;;;12.75;100.00
11038;BME280;5572;49.540;11.932;2023-08-07T11:28:00;94565.34;;;12.83;100.00
11038;BME280;5572;49.540;11.932;2023-08-07T11:30:27;94555.63;;;12.51;100.00
11038;BME280;5572;49.540;11.932;2023-08-07T11:32:54;94571.38;;;12.76;100.00
11038;BME280;5572;49.540;11.932;2023-08-07T11:35:21;94570.75;;;12.67;100.00
11038;BME280;5572;49.540;11.932;2023-08-07T11:37:50;94578.91;;;12.67;100.00
11038;BME280;5572;49.540;11.932;2023-08-07T11:40:19;94583.97;;;12.84;100.00
11038;BME280;5572;49.540;11.932;2023-08-07T11:42:46;94582.22;;;12.76;100.00
11038;BME280;5572;49.540;11.932;2023-08-07T11:45:12;94573.91;;;12.69;100.00
11038;BME280;5572;49.540;11.932;2023-08-07T11:47:39;94598.31;;;12.85;100.00
11038;BME280;5572;49.540;11.932;2023-08-07T11:50:07;94597.44;;;12.96;100.00
11038;BME280;5572;49.540;11.932;2023-08-07T11:52:34;94591.41;;;12.87;100.00
11038;BME280;5572;49.540;11.932;2023-08-07T11:55:03;94600.06;;;12.62;100.00
11038;BME280;5572;49.540;11.932;2023-08-07T11:57:31;94602.16;;;12.68;100.00
11038;BME280;5572;49.540;11.932;2023-08-07T11:59:58;94606.94;;;12.44;100.00
11038;BME280;5572;49.540;11.932;2023-08-07T12:02:25;94611.94;;;12.73;100.00
11038;BME280;5572;49.540;11.932;2023-08-07T12:04:57;94616.69;;;12.76;100.00
11038;BME280;5572;49.540;11.932;2023-08-07T12:07:24;94624.91;;;12.79;100.00
11038;BME280;5572;49.540;11.932;2023-08-07T12:09:52;94619.56;;;12.83;100.00
11038;BME280;5572;49.540;11.932;2023-08-07T12:12:21;94624.47;;;12.77;100.00
11038;BME280;5572;49.540;11.932;2023-08-07T12:14:52;94621.22;;;12.87;100.00
11038;BME280;5572;49.540;11.932;2023-08-07T12:17:19;94637.78;;;12.82;100.00
11038;BME280;5572;49.540;11.932;2023-08-07T12:19:45;94638.53;;;12.83;100.00
11038;BME280;5572;49.540;11.932;2023-08-07T12:22:12;94630.31;;;12.79;100.00
11038;BME280;5572;49.540;11.932;2023-08-07T12:24:40;94632.88;;;12.88;100.00
11038;BME280;5572;49.540;11.932;2023-08-07T12:27:07;94627.69;;;12.83;100.00
11038;BME280;5572;49.540;11.932;2023-08-07T12:29:35;94616.59;;;13.03;100.00
11038;BME280;5572;49.540;11.932;2023-08-07T12:32:02;94625.38;;;13.12;100.00
11038;BME280;5572;49.540;11.932;2023-08-07T12:34:28;94609.09;;;13.12;100.00
11038;BME280;5572;49.540;11.932;2023-08-07T12:36:55;94597.25;;;13.20;100.00
11038;BME280;5572;49.540;11.932;2023-08-07T12:39:22;94601.97;;;13.23;100.00
11038;BME280;5572;49.540;11.932;2023-08-07T12:41:49;94601.28;;;13.10;100.00
11038;BME280;5572;49.540;11.932;2023-08-07T12:44:15;94613.78;;;13.15;100.00
11038;BME280;5572;49.540;11.932;2023-08-07T12:46:43;94626.22;;;13.00;100.00
11038;BME280;5572;49.540;11.932;2023-08-07T12:49:10;94626.56;;;13.30;100.00
11038;BME280;5572;49.540;11.932;2023-08-07T12:51:36;94628.69;;;13.05;100.00
11038;BME280;5572;49.540;11.932;2023-08-07T12:54:03;94639.25;;;13.10;100.00